sensor_id;sensor_type;location;lat;lon;timestamp;P1;durP1;ratioP1;P2;durP2;ratioP2
51866;SDS011;52862;52.504;13.480;2023-02-13T00:02:25;54.73;;;21.57;;
51866;SDS011;52862;52.504;13.480;2023-02-13T00:04:52;54.00;;;19.77;;
51866;SDS011;52862;52.504;13.480;2023-02-13T00:07:19;56.00;;;21.33;;
51866;SDS011;52862;52.504;13.480;2023-02-13T00:09:46;57.73;;;19.90;;
51866;SDS011;52862;52.504;13.480;2023-02-13T00:12:12;51.50;;;18.40;;
51866;SDS011;52862;52.504;13.480;2023-02-13T00:14:40;49.53;;;19.20;;
51866;SDS011;52862;52.504;13.480;2023-02-13T00:17:06;44.57;;;16.97;;
51866;SDS011;52862;52.504;13.480;2023-02-13T00:19:33;47.90;;;16.97;;
51866;SDS011;52862;52.504;13.480;2023-02-13T00:22:00;46.27;;;16.70;;
51866;SDS011;52862;52.504;13.480;2023-02-13T00:24:26;38.27;;;14.60;;
51866;SDS011;52862;52.504;13.480;2023-02-13T00:26:53;33.30;;;12.67;;
51866;SDS011;52862;52.504;13.480;2023-02-13T00:29:20;36.83;;;14.27;;
51866;SDS011;52862;52.504;13.480;2023-02-13T00:31:47;36.77;;;12.97;;
51866;SDS011;52862;52.504;13.480;2023-02-13T00:34:14;41.80;;;15.07;;
51866;SDS011;52862;52.504;13.480;2023-02-13T00:36:41;30.83;;;14.30;;
51866;SDS011;52862;52.504;13.480;2023-02-13T00:39:07;40.57;;;14.63;;
51866;SDS011;52862;52.504;13.480;2023-02-13T00:41:37;35.23;;;14.17;;
51866;SDS011;52862;52.504;13.480;2023-02-13T00:44:03;31.00;;;13.23;;
51866;SDS011;52862;52.504;13.480;2023-02-13T00:46:30;30.27;;;11.57;;
51866;SDS011;52862;52.504;13.480;2023-02-13T00:48:57;24.50;;;9.70;;
51866;SDS011;52862;52.504;13.480;2023-02-13T00:51:24;25.53;;;9.40;;
51866;SDS011;52862;52.504;13.480;2023-02-13T00:53:51;16.27;;;7.50;;
51866;SDS011;52862;52.504;13.480;2023-02-13T00:56:17;22.27;;;7.67;;
51866;SDS011;52862;52.504;13.480;2023-02-13T00:58:44;21.77;;;7.50;;
51866;SDS011;52862;52.504;13.480;2023-02-13T01:01:11;21.57;;;7.30;;
51866;SDS011;52862;52.504;13.480;2023-02-13T01:03:38;20.43;;;6.90;;
51866;SDS011;52862;52.504;13.480;2023-02-13T01:06:06;16.70;;;6.00;;
51866;SDS011;52862;52.504;13.480;2023-02-13T01:08:33;14.53;;;6.63;;
51866;SDS011;52862;52.504;13.480;2023-02-13T01:11:03;14.30;;;6.13;;
51866;SDS011;52862;52.504;13.480;2023-02-13T01:13:30;18.97;;;6.73;;
51866;SDS011;52862;52.504;13.480;2023-02-13T01:15:57;19.87;;;6.57;;
51866;SDS011;52862;52.504;13.480;2023-02-13T01:18:24;12.33;;;5.00;;
51866;SDS011;52862;52.504;13.480;2023-02-13T01:20:57;14.97;;;5.07;;
51866;SDS011;52862;52.504;13.480;2023-02-13T01:23:29;12.03;;;4.10;;
51866;SDS011;52862;52.504;13.480;2023-02-13T01:25:56;15.27;;;4.40;;
51866;SDS011;52862;52.504;13.480;2023-02-13T01:28:23;11.43;;;5.00;;
51866;SDS011;52862;52.504;13.480;2023-02-13T01:30:53;16.47;;;5.10;;
51866;SDS011;52862;52.504;13.480;2023-02-13T01:33:20;11.60;;;4.13;;
51866;SDS011;52862;52.504;13.480;2023-02-13T01:35:47;13.20;;;4.37;;
51866;SDS011;52862;52.504;13.480;2023-02-13T01:38:14;12.77;;;4.07;;
51866;SDS011;52862;52.504;13.480;2023-02-13T01:40:44;11.87;;;4.87;;
51866;SDS011;52862;52.504;13.480;2023-02-13T01:43:11;9.27;;;4.07;;
51866;SDS011;52862;52.504;13.480;2023-02-13T01:45:38;12.10;;;4.03;;
51866;SDS011;52862;52.504;13.480;2023-02-13T01:48:06;7.27;;;4.13;;
51866;SDS011;52862;52.504;13.480;2023-02-13T01:50:39;9.57;;;4.03;;
51866;SDS011;52862;52.504;13.480;2023-02-13T01:53:11;13.57;;;4.87;;
51866;SDS011;52862;52.504;13.480;2023-02-13T01:55:42;8.77;;;4.43;;
51866;SDS011;52862;52.504;13.480;2023-02-13T01:58:15;12.07;;;4.17;;
51866;SDS011;52862;52.504;13.480;2023-02-13T02:00:45;9.20;;;4.47;;
51866;SDS011;52862;52.504;13.480;2023-02-13T02:03:16;12.20;;;4.20;;
51866;SDS011;52862;52.504;13.480;2023-02-13T02:05:48;10.37;;;3.87;;
51866;SDS011;52862;52.504;13.480;2023-02-13T02:08:16;7.57;;;3.73;;
51866;SDS011;52862;52.504;13.480;2023-02-13T02:10:44;9.30;;;4.67;;
51866;SDS011;52862;52.504;13.480;2023-02-13T02:13:12;11.83;;;4.43;;
51866;SDS011;52862;52.504;13.480;2023-02-13T02:15:40;12.17;;;4.47;;
51866;SDS011;52862;52.504;13.480;2023-02-13T02:18:09;7.63;;;4.20;;
51866;SDS011;52862;52.504;13.480;2023-02-13T02:20:55;12.93;;;4.47;;
51866;SDS011;52862;52.504;13.480;2023-02-13T02:23:46;7.97;;;4.03;;
51866;SDS011;52862;52.504;13.480;2023-02-13T02:26:44;4.97;;;3.40;;
51866;SDS011;52862;52.504;13.480;2023-02-13T02:32:50;13.60;;;4.43;;
51866;SDS011;52862;52.504;13.480;2023-02-13T02:35:27;10.77;;;4.57;;
51866;SDS011;52862;52.504;13.480;2023-02-13T02:38:06;8.90;;;4.90;;
51866;SDS011;52862;52.504;13.480;2023-02-13T02:40:45;8.73;;;4.40;;
51866;SDS011;52862;52.504;13.480;2023-02-13T02:43:25;10.07;;;4.77;;
51866;SDS011;52862;52.504;13.480;2023-02-13T02:46:00;13.77;;;5.23;;
51866;SDS011;52862;52.504;13.480;2023-02-13T02:48:38;21.30;;;5.00;;
51866;SDS011;52862;52.504;13.480;2023-02-13T02:51:29;14.60;;;5.50;;
51866;SDS011;52862;52.504;13.480;2023-02-13T02:54:04;15.50;;;5.60;;
51866;SDS011;52862;52.504;13.480;2023-02-13T02:56:52;13.50;;;5.70;;
51866;SDS011;52862;52.504;13.480;2023-02-13T02:59:23;11.93;;;5.40;;
51866;SDS011;52862;52.504;13.480;2023-02-13T03:02:11;11.67;;;6.43;;
51866;SDS011;52862;52.504;13.480;2023-02-13T03:05:14;12.83;;;6.47;;
51866;SDS011;52862;52.504;13.480;2023-02-13T03:08:02;12.80;;;6.53;;
51866;SDS011;52862;52.504;13.480;2023-02-13T03:10:30;13.47;;;6.97;;
51866;SDS011;52862;52.504;13.480;2023-02-13T03:13:27;16.83;;;6.83;;
51866;SDS011;52862;52.504;13.480;2023-02-13T03:16:03;16.90;;;6.63;;
51866;SDS011;52862;52.504;13.480;2023-02-13T03:18:49;13.60;;;7.27;;
51866;SDS011;52862;52.504;13.480;2023-02-13T03:21:40;14.23;;;6.63;;
51866;SDS011;52862;52.504;13.480;2023-02-13T03:24:32;13.83;;;7.33;;
51866;SDS011;52862;52.504;13.480;2023-02-13T03:27:07;14.50;;;7.47;;
51866;SDS011;52862;52.504;13.480;2023-02-13T03:29:42;18.70;;;7.60;;
51866;SDS011;52862;52.504;13.480;2023-02-13T03:32:34;11.67;;;6.40;;
51866;SDS011;52862;52.504;13.480;2023-02-13T03:35:15;13.40;;;6.47;;
51866;SDS011;52862;52.504;13.480;2023-02-13T03:38:11;12.03;;;6.40;;
51866;SDS011;52862;52.504;13.480;2023-02-13T03:40:43;13.87;;;6.60;;
51866;SDS011;52862;52.504;13.480;2023-02-13T03:43:35;13.47;;;6.63;;
51866;SDS011;52862;52.504;13.480;2023-02-13T03:46:06;13.40;;;6.37;;
51866;SDS011;52862;52.504;13.480;2023-02-13T03:48:34;14.10;;;6.77;;
51866;SDS011;52862;52.504;13.480;2023-02-13T03:51:23;17.23;;;7.07;;
51866;SDS011;52862;52.504;13.480;2023-02-13T03:53:55;15.87;;;7.90;;
51866;SDS011;52862;52.504;13.480;2023-02-13T03:56:26;15.13;;;7.07;;
51866;SDS011;52862;52.504;13.480;2023-02-13T03:59:15;14.20;;;7.57;;
51866;SDS011;52862;52.504;13.480;2023-02-13T04:01:49;17.03;;;7.63;;
51866;SDS011;52862;52.504;13.480;2023-02-13T04:04:22;15.60;;;6.73;;
51866;SDS011;52862;52.504;13.480;2023-02-13T04:06:56;16.37;;;7.70;;
51866;SDS011;52862;52.504;13.480;2023-02-13T04:09:26;12.73;;;7.53;;
51866;SDS011;52862;52.504;13.480;2023-02-13T04:11:55;15.37;;;7.00;;
51866;SDS011;52862;52.504;13.480;2023-02-13T04:14:26;18.07;;;8.23;;
51866;SDS011;52862;52.504;13.480;2023-02-13T04:16:58;15.07;;;6.93;;
51866;SDS011;52862;52.504;13.480;2023-02-13T04:19:29;19.33;;;7.77;;
51866;SDS011;52862;52.504;13.480;2023-02-13T04:21:58;15.83;;;7.47;;
51866;SDS011;52862;52.504;13.480;2023-02-13T04:24:27;20.50;;;9.27;;
51866;SDS011;52862;52.504;13.480;2023-02-13T04:26:54;17.37;;;8.60;;
51866;SDS011;52862;52.504;13.480;2023-02-13T04:29:21;18.33;;;8.80;;
51866;SDS011;52862;52.504;13.480;2023-02-13T04:31:49;26.73;;;10.40;;
51866;SDS011;52862;52.504;13.480;2023-02-13T04:34:16;19.27;;;9.20;;
51866;SDS011;52862;52.504;13.480;2023-02-13T04:36:43;19.17;;;8.83;;
51866;SDS011;52862;52.504;13.480;2023-02-13T04:39:10;18.47;;;9.83;;
51866;SDS011;52862;52.504;13.480;2023-02-13T04:41:37;17.73;;;9.47;;
51866;SDS011;52862;52.504;13.480;2023-02-13T04:44:04;19.73;;;9.83;;
51866;SDS011;52862;52.504;13.480;2023-02-13T04:46:31;19.43;;;9.90;;
51866;SDS011;52862;52.504;13.480;2023-02-13T04:48:57;21.30;;;9.50;;
51866;SDS011;52862;52.504;13.480;2023-02-13T04:51:24;19.97;;;9.63;;
51866;SDS011;52862;52.504;13.480;2023-02-13T04:53:51;24.20;;;9.33;;
51866;SDS011;52862;52.504;13.480;2023-02-13T04:56:18;21.10;;;11.00;;
51866;SDS011;52862;52.504;13.480;2023-02-13T04:58:46;25.03;;;10.67;;
51866;SDS011;52862;52.504;13.480;2023-02-13T05:01:12;18.77;;;10.07;;
51866;SDS011;52862;52.504;13.480;2023-02-13T05:03:40;19.90;;;10.00;;
51866;SDS011;52862;52.504;13.480;2023-02-13T05:06:07;22.70;;;10.07;;
51866;SDS011;52862;52.504;13.480;2023-02-13T05:08:33;16.77;;;9.77;;
51866;SDS011;52862;52.504;13.480;2023-02-13T05:11:00;20.33;;;11.27;;
51866;SDS011;52862;52.504;13.480;2023-02-13T05:13:27;24.50;;;10.37;;
51866;SDS011;52862;52.504;13.480;2023-02-13T05:15:54;24.37;;;10.73;;
51866;SDS011;52862;52.504;13.480;2023-02-13T05:18:21;21.37;;;11.13;;
51866;SDS011;52862;52.504;13.480;2023-02-13T05:20:48;19.80;;;10.17;;
51866;SDS011;52862;52.504;13.480;2023-02-13T05:23:35;21.90;;;10.77;;
51866;SDS011;52862;52.504;13.480;2023-02-13T05:26:02;23.50;;;11.07;;
51866;SDS011;52862;52.504;13.480;2023-02-13T05:28:28;25.67;;;10.90;;
51866;SDS011;52862;52.504;13.480;2023-02-13T05:31:14;25.47;;;10.40;;
51866;SDS011;52862;52.504;13.480;2023-02-13T05:33:41;22.73;;;9.67;;
51866;SDS011;52862;52.504;13.480;2023-02-13T05:36:07;18.87;;;10.37;;
51866;SDS011;52862;52.504;13.480;2023-02-13T05:38:35;20.53;;;9.90;;
51866;SDS011;52862;52.504;13.480;2023-02-13T05:41:01;19.17;;;10.13;;
51866;SDS011;52862;52.504;13.480;2023-02-13T05:43:28;25.83;;;10.10;;
51866;SDS011;52862;52.504;13.480;2023-02-13T05:46:02;23.23;;;10.33;;
51866;SDS011;52862;52.504;13.480;2023-02-13T05:48:30;19.60;;;9.57;;
51866;SDS011;52862;52.504;13.480;2023-02-13T05:50:57;22.17;;;9.70;;
51866;SDS011;52862;52.504;13.480;2023-02-13T05:53:24;17.77;;;8.00;;
51866;SDS011;52862;52.504;13.480;2023-02-13T05:55:51;25.53;;;9.07;;
51866;SDS011;52862;52.504;13.480;2023-02-13T05:58:18;14.47;;;7.80;;
51866;SDS011;52862;52.504;13.480;2023-02-13T06:00:45;17.00;;;7.90;;
51866;SDS011;52862;52.504;13.480;2023-02-13T06:03:12;13.23;;;6.37;;
51866;SDS011;52862;52.504;13.480;2023-02-13T06:05:40;16.40;;;6.83;;
51866;SDS011;52862;52.504;13.480;2023-02-13T06:08:07;16.03;;;7.10;;
51866;SDS011;52862;52.504;13.480;2023-02-13T06:10:33;13.33;;;6.70;;
51866;SDS011;52862;52.504;13.480;2023-02-13T06:13:03;15.43;;;7.70;;
51866;SDS011;52862;52.504;13.480;2023-02-13T06:15:30;15.77;;;7.03;;
51866;SDS011;52862;52.504;13.480;2023-02-13T06:17:57;14.90;;;7.13;;
51866;SDS011;52862;52.504;13.480;2023-02-13T06:20:23;18.53;;;7.83;;
51866;SDS011;52862;52.504;13.480;2023-02-13T06:22:51;16.53;;;7.00;;
51866;SDS011;52862;52.504;13.480;2023-02-13T06:25:18;11.03;;;6.43;;
51866;SDS011;52862;52.504;13.480;2023-02-13T06:27:45;12.43;;;6.50;;
51866;SDS011;52862;52.504;13.480;2023-02-13T06:30:13;15.87;;;6.80;;
51866;SDS011;52862;52.504;13.480;2023-02-13T06:32:41;12.53;;;6.60;;
51866;SDS011;52862;52.504;13.480;2023-02-13T06:35:08;11.83;;;6.30;;
51866;SDS011;52862;52.504;13.480;2023-02-13T06:37:35;19.33;;;6.73;;
51866;SDS011;52862;52.504;13.480;2023-02-13T06:40:02;14.73;;;6.27;;
51866;SDS011;52862;52.504;13.480;2023-02-13T06:42:30;12.53;;;6.43;;
51866;SDS011;52862;52.504;13.480;2023-02-13T06:44:57;15.47;;;6.30;;
51866;SDS011;52862;52.504;13.480;2023-02-13T06:47:24;16.20;;;6.70;;
51866;SDS011;52862;52.504;13.480;2023-02-13T06:49:51;16.43;;;6.43;;
51866;SDS011;52862;52.504;13.480;2023-02-13T06:52:18;19.10;;;7.00;;
51866;SDS011;52862;52.504;13.480;2023-02-13T06:54:44;14.87;;;6.27;;
51866;SDS011;52862;52.504;13.480;2023-02-13T06:57:14;15.73;;;6.93;;
51866;SDS011;52862;52.504;13.480;2023-02-13T06:59:41;16.53;;;7.53;;
51866;SDS011;52862;52.504;13.480;2023-02-13T07:02:08;21.83;;;7.50;;
51866;SDS011;52862;52.504;13.480;2023-02-13T07:04:35;12.57;;;6.77;;
51866;SDS011;52862;52.504;13.480;2023-02-13T07:07:02;20.00;;;8.03;;
51866;SDS011;52862;52.504;13.480;2023-02-13T07:09:29;12.43;;;7.23;;
51866;SDS011;52862;52.504;13.480;2023-02-13T07:11:56;15.30;;;7.07;;
51866;SDS011;52862;52.504;13.480;2023-02-13T07:14:24;22.03;;;7.53;;
51866;SDS011;52862;52.504;13.480;2023-02-13T07:16:51;16.67;;;7.57;;
51866;SDS011;52862;52.504;13.480;2023-02-13T07:19:18;16.37;;;7.17;;
51866;SDS011;52862;52.504;13.480;2023-02-13T07:21:45;22.37;;;8.47;;
51866;SDS011;52862;52.504;13.480;2023-02-13T07:24:12;17.30;;;8.17;;
51866;SDS011;52862;52.504;13.480;2023-02-13T07:26:39;14.13;;;6.80;;
51866;SDS011;52862;52.504;13.480;2023-02-13T07:29:06;16.77;;;8.40;;
51866;SDS011;52862;52.504;13.480;2023-02-13T07:31:38;15.20;;;7.57;;
51866;SDS011;52862;52.504;13.480;2023-02-13T07:34:05;14.07;;;7.30;;
51866;SDS011;52862;52.504;13.480;2023-02-13T07:36:32;15.23;;;7.60;;
51866;SDS011;52862;52.504;13.480;2023-02-13T07:38:59;17.60;;;8.27;;
51866;SDS011;52862;52.504;13.480;2023-02-13T07:41:28;18.53;;;7.50;;
51866;SDS011;52862;52.504;13.480;2023-02-13T07:43:55;19.47;;;7.70;;
51866;SDS011;52862;52.504;13.480;2023-02-13T07:46:21;19.37;;;8.13;;
51866;SDS011;52862;52.504;13.480;2023-02-13T07:48:51;14.23;;;7.23;;
51866;SDS011;52862;52.504;13.480;2023-02-13T07:51:18;11.80;;;6.53;;
51866;SDS011;52862;52.504;13.480;2023-02-13T07:53:56;14.97;;;7.30;;
51866;SDS011;52862;52.504;13.480;2023-02-13T07:56:23;18.10;;;7.87;;
51866;SDS011;52862;52.504;13.480;2023-02-13T07:58:49;20.27;;;7.93;;
51866;SDS011;52862;52.504;13.480;2023-02-13T08:01:16;16.00;;;7.40;;
51866;SDS011;52862;52.504;13.480;2023-02-13T08:03:46;13.60;;;7.10;;
51866;SDS011;52862;52.504;13.480;2023-02-13T08:06:16;14.73;;;6.73;;
51866;SDS011;52862;52.504;13.480;2023-02-13T08:08:44;16.53;;;7.07;;
51866;SDS011;52862;52.504;13.480;2023-02-13T08:11:15;15.90;;;7.23;;
51866;SDS011;52862;52.504;13.480;2023-02-13T08:14:06;19.23;;;7.13;;
51866;SDS011;52862;52.504;13.480;2023-02-13T08:16:33;18.37;;;7.10;;
51866;SDS011;52862;52.504;13.480;2023-02-13T08:19:07;18.70;;;7.20;;
51866;SDS011;52862;52.504;13.480;2023-02-13T08:21:34;17.63;;;6.77;;
51866;SDS011;52862;52.504;13.480;2023-02-13T08:24:02;20.50;;;7.17;;
51866;SDS011;52862;52.504;13.480;2023-02-13T08:26:29;22.57;;;7.10;;
51866;SDS011;52862;52.504;13.480;2023-02-13T08:28:56;14.13;;;7.00;;
51866;SDS011;52862;52.504;13.480;2023-02-13T08:31:23;14.27;;;7.17;;
51866;SDS011;52862;52.504;13.480;2023-02-13T08:33:50;13.80;;;7.67;;
51866;SDS011;52862;52.504;13.480;2023-02-13T08:36:17;20.33;;;7.60;;
51866;SDS011;52862;52.504;13.480;2023-02-13T08:38:45;13.73;;;7.17;;
51866;SDS011;52862;52.504;13.480;2023-02-13T08:41:12;15.43;;;7.47;;
51866;SDS011;52862;52.504;13.480;2023-02-13T08:43:39;15.17;;;7.53;;
51866;SDS011;52862;52.504;13.480;2023-02-13T08:46:06;18.03;;;7.43;;
51866;SDS011;52862;52.504;13.480;2023-02-13T08:48:33;19.50;;;8.37;;
51866;SDS011;52862;52.504;13.480;2023-02-13T08:50:59;28.23;;;7.77;;
51866;SDS011;52862;52.504;13.480;2023-02-13T08:53:31;16.40;;;7.60;;
51866;SDS011;52862;52.504;13.480;2023-02-13T08:55:59;16.57;;;7.40;;
51866;SDS011;52862;52.504;13.480;2023-02-13T08:58:26;13.90;;;7.57;;
51866;SDS011;52862;52.504;13.480;2023-02-13T09:00:53;19.83;;;8.67;;
51866;SDS011;52862;52.504;13.480;2023-02-13T09:03:20;14.97;;;7.73;;
51866;SDS011;52862;52.504;13.480;2023-02-13T09:05:47;17.50;;;8.17;;
51866;SDS011;52862;52.504;13.480;2023-02-13T09:08:13;21.00;;;8.40;;
51866;SDS011;52862;52.504;13.480;2023-02-13T09:10:43;20.60;;;7.67;;
51866;SDS011;52862;52.504;13.480;2023-02-13T09:13:10;18.87;;;8.43;;
51866;SDS011;52862;52.504;13.480;2023-02-13T09:15:37;16.50;;;8.27;;
51866;SDS011;52862;52.504;13.480;2023-02-13T09:18:05;21.67;;;9.50;;
51866;SDS011;52862;52.504;13.480;2023-02-13T09:20:32;26.37;;;8.53;;
51866;SDS011;52862;52.504;13.480;2023-02-13T09:23:01;20.47;;;8.33;;
51866;SDS011;52862;52.504;13.480;2023-02-13T09:25:27;15.07;;;8.23;;
51866;SDS011;52862;52.504;13.480;2023-02-13T09:27:54;18.20;;;8.07;;
51866;SDS011;52862;52.504;13.480;2023-02-13T09:30:22;19.00;;;8.83;;
51866;SDS011;52862;52.504;13.480;2023-02-13T09:32:49;20.00;;;9.10;;
51866;SDS011;52862;52.504;13.480;2023-02-13T09:35:16;18.80;;;9.37;;
51866;SDS011;52862;52.504;13.480;2023-02-13T09:37:43;19.50;;;9.23;;
51866;SDS011;52862;52.504;13.480;2023-02-13T09:40:15;18.77;;;8.83;;
51866;SDS011;52862;52.504;13.480;2023-02-13T09:42:47;22.20;;;9.40;;
51866;SDS011;52862;52.504;13.480;2023-02-13T09:45:15;20.27;;;9.00;;
51866;SDS011;52862;52.504;13.480;2023-02-13T09:47:46;20.43;;;9.17;;
51866;SDS011;52862;52.504;13.480;2023-02-13T09:50:15;18.97;;;9.50;;
51866;SDS011;52862;52.504;13.480;2023-02-13T09:52:47;22.97;;;10.40;;
51866;SDS011;52862;52.504;13.480;2023-02-13T09:55:16;23.13;;;9.90;;
51866;SDS011;52862;52.504;13.480;2023-02-13T09:57:46;24.50;;;11.23;;
51866;SDS011;52862;52.504;13.480;2023-02-13T10:00:20;23.07;;;11.70;;
51866;SDS011;52862;52.504;13.480;2023-02-13T10:02:54;29.40;;;11.43;;
51866;SDS011;52862;52.504;13.480;2023-02-13T10:05:44;26.43;;;12.40;;
51866;SDS011;52862;52.504;13.480;2023-02-13T10:08:18;28.30;;;11.50;;
51866;SDS011;52862;52.504;13.480;2023-02-13T10:11:00;27.37;;;11.47;;
51866;SDS011;52862;52.504;13.480;2023-02-13T10:13:42;27.03;;;12.53;;
51866;SDS011;52862;52.504;13.480;2023-02-13T10:16:21;33.07;;;13.53;;
51866;SDS011;52862;52.504;13.480;2023-02-13T10:18:53;33.73;;;13.47;;
51866;SDS011;52862;52.504;13.480;2023-02-13T10:21:24;24.70;;;12.43;;
51866;SDS011;52862;52.504;13.480;2023-02-13T10:23:57;30.23;;;13.40;;
51866;SDS011;52862;52.504;13.480;2023-02-13T10:26:28;30.57;;;14.27;;
51866;SDS011;52862;52.504;13.480;2023-02-13T10:29:08;30.00;;;13.37;;
51866;SDS011;52862;52.504;13.480;2023-02-13T10:32:00;33.17;;;14.47;;
51866;SDS011;52862;52.504;13.480;2023-02-13T10:34:31;30.73;;;14.77;;
51866;SDS011;52862;52.504;13.480;2023-02-13T10:37:02;38.27;;;14.80;;
51866;SDS011;52862;52.504;13.480;2023-02-13T10:39:39;31.40;;;13.43;;
51866;SDS011;52862;52.504;13.480;2023-02-13T10:42:10;29.83;;;14.63;;
51866;SDS011;52862;52.504;13.480;2023-02-13T10:44:50;27.73;;;13.27;;
51866;SDS011;52862;52.504;13.480;2023-02-13T10:47:31;29.07;;;13.83;;
51866;SDS011;52862;52.504;13.480;2023-02-13T10:50:13;28.17;;;13.50;;
51866;SDS011;52862;52.504;13.480;2023-02-13T10:52:49;38.13;;;13.57;;
51866;SDS011;52862;52.504;13.480;2023-02-13T10:55:28;29.33;;;13.70;;
51866;SDS011;52862;52.504;13.480;2023-02-13T10:58:06;29.80;;;12.60;;
51866;SDS011;52862;52.504;13.480;2023-02-13T11:00:39;27.83;;;12.53;;
51866;SDS011;52862;52.504;13.480;2023-02-13T11:03:14;29.93;;;12.67;;
51866;SDS011;52862;52.504;13.480;2023-02-13T11:05:44;29.80;;;12.07;;
51866;SDS011;52862;52.504;13.480;2023-02-13T11:08:14;30.30;;;12.70;;
51866;SDS011;52862;52.504;13.480;2023-02-13T11:10:45;29.33;;;12.63;;
51866;SDS011;52862;52.504;13.480;2023-02-13T11:13:16;28.20;;;11.20;;
51866;SDS011;52862;52.504;13.480;2023-02-13T11:15:55;33.17;;;12.73;;
51866;SDS011;52862;52.504;13.480;2023-02-13T11:18:30;22.07;;;11.37;;
51866;SDS011;52862;52.504;13.480;2023-02-13T11:21:07;28.73;;;12.87;;
51866;SDS011;52862;52.504;13.480;2023-02-13T11:23:37;24.37;;;12.00;;
51866;SDS011;52862;52.504;13.480;2023-02-13T11:26:20;24.53;;;12.10;;
51866;SDS011;52862;52.504;13.480;2023-02-13T11:28:52;26.60;;;12.50;;
51866;SDS011;52862;52.504;13.480;2023-02-13T11:31:22;32.13;;;13.67;;
51866;SDS011;52862;52.504;13.480;2023-02-13T11:33:52;31.57;;;13.30;;
51866;SDS011;52862;52.504;13.480;2023-02-13T11:36:24;30.73;;;14.67;;
51866;SDS011;52862;52.504;13.480;2023-02-13T11:38:57;28.77;;;14.30;;
51866;SDS011;52862;52.504;13.480;2023-02-13T11:41:24;25.43;;;13.50;;
51866;SDS011;52862;52.504;13.480;2023-02-13T11:43:53;33.83;;;14.60;;
51866;SDS011;52862;52.504;13.480;2023-02-13T11:46:26;40.60;;;16.37;;
51866;SDS011;52862;52.504;13.480;2023-02-13T11:48:55;35.87;;;14.80;;
51866;SDS011;52862;52.504;13.480;2023-02-13T11:51:41;33.90;;;15.80;;
51866;SDS011;52862;52.504;13.480;2023-02-13T11:54:27;31.30;;;14.83;;
51866;SDS011;52862;52.504;13.480;2023-02-13T11:56:58;27.57;;;13.97;;
51866;SDS011;52862;52.504;13.480;2023-02-13T11:59:31;32.57;;;16.03;;
51866;SDS011;52862;52.504;13.480;2023-02-13T12:02:11;34.03;;;14.97;;
51866;SDS011;52862;52.504;13.480;2023-02-13T12:04:41;32.63;;;15.30;;
51866;SDS011;52862;52.504;13.480;2023-02-13T12:07:13;32.93;;;15.77;;
51866;SDS011;52862;52.504;13.480;2023-02-13T12:09:43;33.57;;;16.23;;
51866;SDS011;52862;52.504;13.480;2023-02-13T12:12:14;34.27;;;16.30;;
51866;SDS011;52862;52.504;13.480;2023-02-13T12:14:44;34.87;;;16.63;;
51866;SDS011;52862;52.504;13.480;2023-02-13T12:17:12;29.43;;;14.50;;
51866;SDS011;52862;52.504;13.480;2023-02-13T12:19:56;33.67;;;16.87;;
51866;SDS011;52862;52.504;13.480;2023-02-13T12:22:28;33.83;;;16.40;;
51866;SDS011;52862;52.504;13.480;2023-02-13T12:28:05;40.77;;;17.33;;
51866;SDS011;52862;52.504;13.480;2023-02-13T12:33:55;37.37;;;17.50;;
51866;SDS011;52862;52.504;13.480;2023-02-13T12:36:45;34.37;;;16.60;;
51866;SDS011;52862;52.504;13.480;2023-02-13T12:39:23;38.87;;;19.03;;
51866;SDS011;52862;52.504;13.480;2023-02-13T12:41:57;40.67;;;17.70;;
51866;SDS011;52862;52.504;13.480;2023-02-13T12:44:45;43.93;;;17.00;;
51866;SDS011;52862;52.504;13.480;2023-02-13T12:47:33;37.87;;;18.13;;
51866;SDS011;52862;52.504;13.480;2023-02-13T12:50:16;35.17;;;16.80;;
51866;SDS011;52862;52.504;13.480;2023-02-13T12:53:03;32.60;;;13.70;;
51866;SDS011;52862;52.504;13.480;2023-02-13T12:55:51;31.07;;;15.53;;
51866;SDS011;52862;52.504;13.480;2023-02-13T12:58:40;33.47;;;15.53;;
51866;SDS011;52862;52.504;13.480;2023-02-13T13:01:29;34.23;;;15.03;;
51866;SDS011;52862;52.504;13.480;2023-02-13T13:04:12;31.37;;;15.47;;
51866;SDS011;52862;52.504;13.480;2023-02-13T13:09:51;40.90;;;17.20;;
51866;SDS011;52862;52.504;13.480;2023-02-13T13:12:32;37.83;;;17.47;;
51866;SDS011;52862;52.504;13.480;2023-02-13T13:15:10;32.97;;;15.70;;
51866;SDS011;52862;52.504;13.480;2023-02-13T13:17:49;32.80;;;15.17;;
51866;SDS011;52862;52.504;13.480;2023-02-13T13:20:34;34.47;;;16.20;;
51866;SDS011;52862;52.504;13.480;2023-02-13T13:23:14;37.37;;;17.67;;
51866;SDS011;52862;52.504;13.480;2023-02-13T13:25:47;33.50;;;16.63;;
51866;SDS011;52862;52.504;13.480;2023-02-13T13:28:23;35.07;;;16.57;;
51866;SDS011;52862;52.504;13.480;2023-02-13T13:30:54;33.80;;;15.70;;
51866;SDS011;52862;52.504;13.480;2023-02-13T13:33:24;42.27;;;17.73;;
51866;SDS011;52862;52.504;13.480;2023-02-13T13:35:54;33.50;;;15.83;;
51866;SDS011;52862;52.504;13.480;2023-02-13T13:38:40;36.90;;;16.77;;
51866;SDS011;52862;52.504;13.480;2023-02-13T13:41:18;36.37;;;16.37;;
51866;SDS011;52862;52.504;13.480;2023-02-13T13:44:02;34.27;;;17.60;;
51866;SDS011;52862;52.504;13.480;2023-02-13T13:46:45;32.23;;;15.60;;
51866;SDS011;52862;52.504;13.480;2023-02-13T13:49:34;39.23;;;17.93;;
51866;SDS011;52862;52.504;13.480;2023-02-13T13:52:17;39.73;;;17.10;;
51866;SDS011;52862;52.504;13.480;2023-02-13T13:54:47;37.67;;;16.73;;
51866;SDS011;52862;52.504;13.480;2023-02-13T13:57:16;38.47;;;17.70;;
51866;SDS011;52862;52.504;13.480;2023-02-13T14:02:50;40.17;;;17.73;;
51866;SDS011;52862;52.504;13.480;2023-02-13T14:05:59;38.27;;;16.47;;
51866;SDS011;52862;52.504;13.480;2023-02-13T14:11:30;42.93;;;17.43;;
51866;SDS011;52862;52.504;13.480;2023-02-13T14:14:00;38.93;;;17.70;;
51866;SDS011;52862;52.504;13.480;2023-02-13T14:16:47;37.47;;;17.00;;
51866;SDS011;52862;52.504;13.480;2023-02-13T14:19:25;36.83;;;16.43;;
51866;SDS011;52862;52.504;13.480;2023-02-13T14:24:58;42.33;;;18.57;;
51866;SDS011;52862;52.504;13.480;2023-02-13T14:27:27;42.37;;;17.70;;
51866;SDS011;52862;52.504;13.480;2023-02-13T14:29:56;38.70;;;17.37;;
51866;SDS011;52862;52.504;13.480;2023-02-13T14:32:25;42.93;;;17.57;;
51866;SDS011;52862;52.504;13.480;2023-02-13T14:34:57;35.90;;;16.63;;
51866;SDS011;52862;52.504;13.480;2023-02-13T14:37:30;37.23;;;17.40;;
51866;SDS011;52862;52.504;13.480;2023-02-13T14:42:57;39.40;;;17.10;;
51866;SDS011;52862;52.504;13.480;2023-02-13T14:45:45;32.03;;;15.60;;
51866;SDS011;52862;52.504;13.480;2023-02-13T14:48:15;36.27;;;16.53;;
51866;SDS011;52862;52.504;13.480;2023-02-13T14:50:43;38.67;;;16.70;;
51866;SDS011;52862;52.504;13.480;2023-02-13T14:53:15;40.10;;;16.40;;
51866;SDS011;52862;52.504;13.480;2023-02-13T14:55:46;36.87;;;16.03;;
51866;SDS011;52862;52.504;13.480;2023-02-13T14:58:19;44.00;;;17.17;;
51866;SDS011;52862;52.504;13.480;2023-02-13T15:00:51;40.50;;;17.03;;
51866;SDS011;52862;52.504;13.480;2023-02-13T15:03:23;35.37;;;16.60;;
51866;SDS011;52862;52.504;13.480;2023-02-13T15:05:55;36.50;;;17.27;;
51866;SDS011;52862;52.504;13.480;2023-02-13T15:08:25;49.80;;;18.40;;
51866;SDS011;52862;52.504;13.480;2023-02-13T15:10:54;39.57;;;16.67;;